createdAt,value
2019-03-12T00:00:02.017Z,5.05
2019-03-12T00:02:30.456Z,4.92
2019-03-12T00:04:59.181Z,4.75
2019-03-12T00:07:27.751Z,4.64
2019-03-12T00:09:56.341Z,4.52
2019-03-12T00:12:24.937Z,4.54
2019-03-12T00:14:53.457Z,4.59
2019-03-12T00:17:21.967Z,4.76
2019-03-12T00:19:50.587Z,4.96
2019-03-12T00:22:19.412Z,4.96
2019-03-12T00:24:47.970Z,4.99
2019-03-12T00:27:16.475Z,5.02
2019-03-12T00:29:45.052Z,4.94
2019-03-12T00:32:13.511Z,5.01
2019-03-12T00:34:42.178Z,5.04
2019-03-12T00:37:11.229Z,4.80
2019-03-12T00:39:39.743Z,4.56
2019-03-12T00:42:08.262Z,4.22
2019-03-12T00:44:36.815Z,4.20
2019-03-12T00:47:05.670Z,4.52
2019-03-12T00:49:34.232Z,4.78
2019-03-12T00:52:02.727Z,4.90
2019-03-12T00:54:31.318Z,5.15
2019-03-12T00:56:59.842Z,5.37
2019-03-12T00:59:28.357Z,5.38
2019-03-12T01:01:56.901Z,5.42
2019-03-12T01:04:25.543Z,5.31
2019-03-12T01:06:54.085Z,5.17
2019-03-12T01:09:22.755Z,5.14
2019-03-12T01:11:51.271Z,4.35
2019-03-12T01:14:19.856Z,4.35
2019-03-12T01:16:48.426Z,4.00
2019-03-12T01:19:17.041Z,3.88
2019-03-12T01:21:45.573Z,4.04
2019-03-12T01:24:14.003Z,4.38
2019-03-12T01:26:43.538Z,4.58
2019-03-12T01:29:12.098Z,4.72
2019-03-12T01:31:40.624Z,4.74
2019-03-12T01:34:09.061Z,4.84
2019-03-12T01:36:37.834Z,4.86
2019-03-12T01:39:07.422Z,4.82
2019-03-12T01:41:36.127Z,4.89
2019-03-12T01:44:04.702Z,5.01
2019-03-12T01:46:33.361Z,4.93
2019-03-12T01:49:01.943Z,4.61
2019-03-12T01:51:31.338Z,4.31
2019-03-12T01:54:00.142Z,4.13
2019-03-12T01:56:28.746Z,4.25
2019-03-12T01:58:57.363Z,4.29
2019-03-12T02:01:25.813Z,4.32
2019-03-12T02:03:54.437Z,4.35
2019-03-12T02:06:22.942Z,4.40
2019-03-12T02:08:51.512Z,4.42
2019-03-12T02:11:20.098Z,4.34
2019-03-12T02:13:48.609Z,4.39
2019-03-12T02:16:17.191Z,4.46
2019-03-12T02:18:45.755Z,4.42
2019-03-12T02:21:14.347Z,4.61
2019-03-12T02:23:42.970Z,4.52
2019-03-12T02:26:12.008Z,4.20
2019-03-12T02:28:40.722Z,3.87
2019-03-12T02:31:09.332Z,3.82
2019-03-12T02:33:38.012Z,3.83
2019-03-12T02:36:06.631Z,3.85
2019-03-12T02:38:35.216Z,3.96
2019-03-12T02:41:03.753Z,3.96
2019-03-12T02:43:32.622Z,3.98
2019-03-12T02:46:01.129Z,4.05
2019-03-12T02:48:29.752Z,4.08
2019-03-12T02:50:58.189Z,4.20
2019-03-12T02:53:26.942Z,4.24
2019-03-12T02:55:55.517Z,4.38
2019-03-12T02:58:24.066Z,4.40
2019-03-12T03:00:52.486Z,4.21
2019-03-12T03:03:21.255Z,4.07
2019-03-12T03:05:51.474Z,3.92
2019-03-12T03:08:21.725Z,3.76
2019-03-12T03:10:50.301Z,3.62
2019-03-12T03:13:18.911Z,3.67
2019-03-12T03:15:47.698Z,3.76
2019-03-12T03:18:16.307Z,3.77
2019-03-12T03:20:44.901Z,3.78
2019-03-12T03:23:13.509Z,3.89
2019-03-12T03:25:42.129Z,3.91
2019-03-12T03:28:10.724Z,3.96
2019-03-12T03:30:39.436Z,4.00
2019-03-12T03:33:07.994Z,4.24
2019-03-12T03:35:36.565Z,4.01
2019-03-12T03:38:05.299Z,3.93
2019-03-12T03:40:33.873Z,3.72
2019-03-12T03:43:02.474Z,3.42
2019-03-12T03:45:31.008Z,3.42
2019-03-12T03:47:59.614Z,3.57
2019-03-12T03:50:28.207Z,3.71
2019-03-12T03:52:56.742Z,3.65
2019-03-12T03:55:25.319Z,3.64
2019-03-12T03:57:53.923Z,3.75
2019-03-12T04:00:25.673Z,3.81
2019-03-12T04:02:54.274Z,3.89
2019-03-12T04:05:22.918Z,3.84
2019-03-12T04:07:51.563Z,3.95
2019-03-12T04:10:20.180Z,4.04
2019-03-12T04:12:48.791Z,3.91
2019-03-12T04:15:20.080Z,3.80
2019-03-12T04:17:48.822Z,3.66
2019-03-12T04:20:18.314Z,3.74
2019-03-12T04:22:47.023Z,3.78
2019-03-12T04:25:16.198Z,3.95
2019-03-12T04:27:44.712Z,3.90
2019-03-12T04:30:18.032Z,3.90
2019-03-12T04:32:46.544Z,3.89
2019-03-12T04:35:29.737Z,3.89
2019-03-12T04:37:58.281Z,3.90
2019-03-12T04:40:26.921Z,3.91
2019-03-12T04:42:55.524Z,4.08
2019-03-12T04:45:24.117Z,4.20
2019-03-12T04:47:52.643Z,4.14
2019-03-12T04:50:21.221Z,4.05
2019-03-12T04:52:49.709Z,4.01
2019-03-12T04:55:18.305Z,3.86
2019-03-12T04:57:46.921Z,3.94
2019-03-12T05:00:17.563Z,4.05
2019-03-12T05:02:46.077Z,4.10
2019-03-12T05:05:14.863Z,4.18
2019-03-12T05:07:43.661Z,4.20
2019-03-12T05:10:16.016Z,4.27
2019-03-12T05:12:44.545Z,4.32
2019-03-12T05:15:14.860Z,4.34
2019-03-12T05:17:43.846Z,4.48
2019-03-12T05:20:14.163Z,4.66
2019-03-12T05:22:42.786Z,4.65
2019-03-12T05:25:13.643Z,4.62
2019-03-12T05:27:42.206Z,4.39
2019-03-12T05:30:23.485Z,4.20
2019-03-12T05:32:52.075Z,4.23
2019-03-12T05:35:20.650Z,4.22
2019-03-12T05:37:49.228Z,4.27
2019-03-12T05:40:17.943Z,4.29
2019-03-12T05:42:46.569Z,4.33
2019-03-12T05:45:16.156Z,4.38
2019-03-12T05:47:45.469Z,4.48
2019-03-12T05:50:19.244Z,4.47
2019-03-12T05:52:49.320Z,4.53
2019-03-12T05:55:18.664Z,4.94
2019-03-12T05:57:47.212Z,4.90
2019-03-12T06:00:23.425Z,4.77
2019-03-12T06:02:52.058Z,4.61
2019-03-12T06:05:20.616Z,4.50
2019-03-12T06:07:49.198Z,4.45
2019-03-12T06:10:17.842Z,4.50
2019-03-12T06:12:46.467Z,4.67
2019-03-12T06:15:18.008Z,4.80
2019-03-12T06:17:46.558Z,4.79
2019-03-12T06:20:15.657Z,4.93
2019-03-12T06:22:44.260Z,4.94
2019-03-12T06:25:13.344Z,4.94
2019-03-12T06:27:41.997Z,4.93
2019-03-12T06:30:16.158Z,5.01
2019-03-12T06:32:49.177Z,5.13
2019-03-12T06:35:19.395Z,5.07
2019-03-12T06:37:49.663Z,4.96
2019-03-12T06:40:19.885Z,4.82
2019-03-12T06:42:56.130Z,4.88
2019-03-12T06:45:28.797Z,4.89
2019-03-12T06:48:02.166Z,4.97
2019-03-12T06:50:32.443Z,4.92
2019-03-12T06:53:18.545Z,4.93
2019-03-12T06:55:51.478Z,4.99
2019-03-12T06:58:21.624Z,5.12
2019-03-12T07:00:54.530Z,5.28
2019-03-12T07:03:33.829Z,5.39
2019-03-12T07:06:20.377Z,5.53
2019-03-12T07:09:07.274Z,5.66
2019-03-12T07:11:38.458Z,5.51
2019-03-12T07:14:23.818Z,5.47
2019-03-12T07:16:56.870Z,5.54
2019-03-12T07:19:43.730Z,5.49
2019-03-12T07:22:13.962Z,5.45
2019-03-12T07:24:49.774Z,5.56
2019-03-12T07:27:20.024Z,5.59
2019-03-12T07:29:56.265Z,5.69
2019-03-12T07:32:26.435Z,5.74
2019-03-12T07:34:56.692Z,5.74
2019-03-12T07:37:29.710Z,5.89
2019-03-12T07:40:03.178Z,6.01
2019-03-12T07:42:33.276Z,6.20
2019-03-12T07:45:03.373Z,6.20
2019-03-12T07:47:36.070Z,6.06
2019-03-12T07:50:21.324Z,6.12
2019-03-12T07:52:57.587Z,6.07
2019-03-12T07:55:43.202Z,6.00
2019-03-12T07:58:34.922Z,6.08
2019-03-12T08:01:10.289Z,6.19
2019-03-12T08:03:40.515Z,6.25
2019-03-12T08:06:10.779Z,6.27
2019-03-12T08:08:46.845Z,6.35
2019-03-12T08:11:19.796Z,6.39
2019-03-12T08:14:05.292Z,6.48
2019-03-12T08:16:35.420Z,6.69
2019-03-12T08:19:05.577Z,6.90
2019-03-12T08:21:35.890Z,6.85
2019-03-12T08:24:09.112Z,6.85
2019-03-12T08:26:45.460Z,6.81
2019-03-12T08:29:27.710Z,6.84
2019-03-12T08:32:00.716Z,6.93
2019-03-12T08:34:33.555Z,6.98
2019-03-12T08:37:03.813Z,7.09
2019-03-12T08:39:34.029Z,7.15
2019-03-12T08:42:20.470Z,7.28
2019-03-12T08:45:00.067Z,7.30
2019-03-12T08:47:30.809Z,7.31
2019-03-12T08:50:10.111Z,7.38
2019-03-12T08:52:40.263Z,7.62
2019-03-12T08:55:28.507Z,7.83
2019-03-12T08:58:04.474Z,7.88
2019-03-12T09:00:47.057Z,7.88
2019-03-12T09:03:19.985Z,7.78
2019-03-12T09:05:56.095Z,7.82
2019-03-12T09:08:35.634Z,7.92
2019-03-12T09:11:06.749Z,8.06
2019-03-12T09:13:36.999Z,8.12
2019-03-12T09:16:13.027Z,8.12
2019-03-12T09:18:49.065Z,8.27
2019-03-12T09:21:19.248Z,8.36
2019-03-12T09:23:55.518Z,8.30
2019-03-12T09:26:25.716Z,8.40
2019-03-12T09:28:58.989Z,8.68
2019-03-12T09:31:41.245Z,8.75
2019-03-12T09:34:14.455Z,8.73
2019-03-12T09:36:47.358Z,8.81
2019-03-12T09:39:17.643Z,8.74
2019-03-12T09:41:50.712Z,8.72
2019-03-12T09:44:26.980Z,8.77
2019-03-12T09:47:06.104Z,8.77
2019-03-12T09:49:45.031Z,8.79
2019-03-12T09:52:15.293Z,8.92
2019-03-12T09:54:51.335Z,8.88
2019-03-12T09:57:33.514Z,8.89
2019-03-12T10:00:15.715Z,9.01
2019-03-12T10:02:52.370Z,9.13
2019-03-12T10:05:22.648Z,9.17
2019-03-12T10:07:58.706Z,9.21
2019-03-12T10:10:28.970Z,9.15
2019-03-12T10:12:59.120Z,9.01
2019-03-12T10:15:47.894Z,9.04
2019-03-12T10:18:34.442Z,9.10
2019-03-12T10:21:10.675Z,9.19
2019-03-12T10:23:46.929Z,9.26
2019-03-12T10:26:17.145Z,9.25
2019-03-12T10:29:05.878Z,9.32
2019-03-12T10:31:42.301Z,9.48
2019-03-12T10:34:12.520Z,9.46
2019-03-12T10:36:42.797Z,9.73
2019-03-12T10:40:00.965Z,10.00
2019-03-12T10:42:34.993Z,10.17
2019-03-12T10:45:11.829Z,10.11
2019-03-12T10:47:44.735Z,10.18
2019-03-12T10:50:13.659Z,10.28
2019-03-12T10:52:42.272Z,10.14
2019-03-12T10:55:13.284Z,10.22
2019-03-12T10:57:41.423Z,10.27
2019-03-12T11:00:18.308Z,10.37
2019-03-12T11:02:47.178Z,10.31
2019-03-12T11:05:16.060Z,10.34
2019-03-12T11:07:44.616Z,10.24
2019-03-12T11:10:18.647Z,10.32
2019-03-12T11:12:47.255Z,10.41
2019-03-12T11:15:16.718Z,10.41
2019-03-12T11:17:50.114Z,10.27
2019-03-12T11:20:24.827Z,10.07
2019-03-12T11:22:53.440Z,10.10
2019-03-12T11:25:27.279Z,10.15
2019-03-12T11:27:52.360Z,10.22
2019-03-12T11:30:21.334Z,10.29
2019-03-12T11:32:49.969Z,10.45
2019-03-12T11:35:18.569Z,10.34
2019-03-12T11:37:47.203Z,10.26
2019-03-12T11:40:18.570Z,10.20
2019-03-12T11:42:47.352Z,10.19
2019-03-12T11:45:19.127Z,10.37
2019-03-12T11:47:46.478Z,10.64
2019-03-12T11:50:17.330Z,10.77
2019-03-12T11:52:54.906Z,10.74
2019-03-12T11:55:17.213Z,10.78
2019-03-12T11:57:46.140Z,10.67
2019-03-12T12:00:19.712Z,10.67
2019-03-12T12:02:59.250Z,10.74
2019-03-12T12:05:18.665Z,11.00
2019-03-12T12:07:47.256Z,11.17
2019-03-12T12:10:17.671Z,11.20
2019-03-12T12:12:46.295Z,11.14
2019-03-12T12:15:16.081Z,11.12
2019-03-12T12:17:44.713Z,11.11
2019-03-12T12:20:14.866Z,11.29
2019-03-12T12:22:45.154Z,11.30
2019-03-12T12:25:18.094Z,11.56
2019-03-12T12:27:46.798Z,11.63
2019-03-12T12:30:20.285Z,11.78
2019-03-12T12:32:48.872Z,11.89
2019-03-12T12:35:17.540Z,11.76
2019-03-12T12:37:46.249Z,11.52
2019-03-12T12:40:22.488Z,11.60
2019-03-12T12:42:51.129Z,11.72
2019-03-12T12:45:22.879Z,11.81
2019-03-12T12:47:51.422Z,11.79
2019-03-12T12:50:20.035Z,11.62
2019-03-12T12:52:48.664Z,11.66
2019-03-12T12:55:17.347Z,11.70
2019-03-12T12:57:45.967Z,11.60
2019-03-12T13:00:26.750Z,11.53
2019-03-12T13:02:55.367Z,11.56
2019-03-12T13:05:24.049Z,11.50
2019-03-12T13:07:52.793Z,11.78
2019-03-12T13:10:27.074Z,11.94
2019-03-12T13:12:55.872Z,11.83
2019-03-12T13:15:24.554Z,11.81
2019-03-12T13:17:53.192Z,11.79
2019-03-12T13:20:22.055Z,11.66
2019-03-12T13:22:50.749Z,11.65
2019-03-12T13:25:19.717Z,11.65
2019-03-12T13:27:48.419Z,11.68
2019-03-12T13:30:24.141Z,11.42
2019-03-12T13:32:52.813Z,11.25
2019-03-12T13:35:21.823Z,11.23
2019-03-12T13:37:50.467Z,11.26
2019-03-12T13:40:26.435Z,11.24
2019-03-12T13:42:55.400Z,11.25
2019-03-12T13:45:26.722Z,11.46
2019-03-12T13:47:55.987Z,11.42
2019-03-12T13:50:24.969Z,11.46
2019-03-12T13:52:53.677Z,11.73
2019-03-12T13:55:22.241Z,11.73
2019-03-12T13:57:50.832Z,11.61
2019-03-12T14:00:23.532Z,11.47
2019-03-12T14:02:52.373Z,11.37
2019-03-12T14:05:21.196Z,11.28
2019-03-12T14:07:50.108Z,11.17
2019-03-12T14:10:22.783Z,11.05
2019-03-12T14:12:56.197Z,10.97
2019-03-12T14:15:32.825Z,10.93
2019-03-12T14:18:01.599Z,11.03
2019-03-12T14:20:50.665Z,11.02
2019-03-12T14:23:30.806Z,10.99
2019-03-12T14:25:59.631Z,10.94
2019-03-12T14:28:28.339Z,10.90
2019-03-12T14:30:57.116Z,10.88
2019-03-12T14:33:25.764Z,10.99
2019-03-12T14:35:54.448Z,11.21
2019-03-12T14:38:23.169Z,11.17
2019-03-12T14:40:51.863Z,11.00
2019-03-12T14:43:20.499Z,10.96
2019-03-12T14:45:50.732Z,10.87
2019-03-12T14:48:39.039Z,10.89
2019-03-12T14:51:10.892Z,10.87
2019-03-12T14:53:41.242Z,10.81
2019-03-12T14:56:09.755Z,10.83
2019-03-12T14:58:38.433Z,10.81
2019-03-12T15:01:07.625Z,10.78
2019-03-12T15:03:36.964Z,10.80
2019-03-12T15:06:05.572Z,10.83
2019-03-12T15:08:34.051Z,10.81
2019-03-12T15:11:02.740Z,10.80
2019-03-12T15:13:31.516Z,10.80
2019-03-12T15:16:00.062Z,10.77
2019-03-12T15:18:28.638Z,10.75
2019-03-12T15:20:57.362Z,10.87
2019-03-12T15:23:26.027Z,10.98
2019-03-12T15:25:54.571Z,10.84
2019-03-12T15:28:23.211Z,10.75
2019-03-12T15:30:51.707Z,10.64
2019-03-12T15:33:20.399Z,10.54
2019-03-12T15:35:48.914Z,10.49
2019-03-12T15:38:17.546Z,10.51
2019-03-12T15:40:46.146Z,10.56
2019-03-12T15:43:14.757Z,10.57
2019-03-12T15:45:43.345Z,10.51
2019-03-12T15:48:12.000Z,10.48
2019-03-12T15:50:40.627Z,10.49
2019-03-12T15:53:09.194Z,10.51
2019-03-12T15:55:37.832Z,10.51
2019-03-12T15:58:07.093Z,10.58
2019-03-12T16:00:36.083Z,10.55
2019-03-12T16:03:04.765Z,10.56
2019-03-12T16:05:33.376Z,10.73
2019-03-12T16:08:01.957Z,10.79
2019-03-12T16:10:30.516Z,10.58
2019-03-12T16:12:59.137Z,10.57
2019-03-12T16:15:27.719Z,10.49
2019-03-12T16:17:56.300Z,10.30
2019-03-12T16:20:24.948Z,10.30
2019-03-12T16:22:53.694Z,10.29
2019-03-12T16:25:22.305Z,10.43
2019-03-12T16:27:50.933Z,10.42
2019-03-12T16:30:22.683Z,10.31
2019-03-12T16:32:51.396Z,10.28
2019-03-12T16:35:20.401Z,10.32
2019-03-12T16:37:48.982Z,10.42
2019-03-12T16:40:18.409Z,10.45
2019-03-12T16:42:47.218Z,10.46
2019-03-12T16:45:20.315Z,10.65
2019-03-12T16:47:48.933Z,10.71
2019-03-12T16:50:18.267Z,10.65
2019-03-12T16:52:46.910Z,10.53
2019-03-12T16:55:18.066Z,10.41
2019-03-12T16:57:46.722Z,10.42
2019-03-12T17:00:18.853Z,10.44
2019-03-12T17:02:47.469Z,10.41
2019-03-12T17:05:16.303Z,10.36
2019-03-12T17:07:45.951Z,10.53
2019-03-12T17:10:19.216Z,10.48
2019-03-12T17:12:47.785Z,10.35
2019-03-12T17:15:24.585Z,10.38
2019-03-12T17:17:53.178Z,10.37
2019-03-12T17:20:21.884Z,10.27
2019-03-12T17:22:50.525Z,10.20
2019-03-12T17:25:19.118Z,10.29
2019-03-12T17:27:47.759Z,10.47
2019-03-12T17:30:24.608Z,10.55
2019-03-12T17:32:53.207Z,10.39
2019-03-12T17:35:27.849Z,10.32
2019-03-12T17:37:56.479Z,10.29
2019-03-12T17:40:25.108Z,10.18
2019-03-12T17:42:53.697Z,10.13
2019-03-12T17:45:22.387Z,10.12
2019-03-12T17:47:50.978Z,10.18
2019-03-12T17:50:19.715Z,10.22
2019-03-12T17:52:48.350Z,10.21
2019-03-12T17:55:16.976Z,10.25
2019-03-12T17:57:45.586Z,10.26
2019-03-12T18:00:23.057Z,10.35
2019-03-12T18:02:51.672Z,10.23
2019-03-12T18:05:20.273Z,10.20
2019-03-12T18:07:48.978Z,10.19
2019-03-12T18:10:18.433Z,10.16
2019-03-12T18:12:47.099Z,10.36
2019-03-12T18:15:19.553Z,10.48
2019-03-12T18:17:48.262Z,10.39
2019-03-12T18:20:18.586Z,10.38
2019-03-12T18:22:47.216Z,10.29
2019-03-12T18:25:21.598Z,10.24
2019-03-12T18:27:50.223Z,10.23
2019-03-12T18:30:19.188Z,10.24
2019-03-12T18:32:47.803Z,10.14
2019-03-12T18:35:17.488Z,10.18
2019-03-12T18:37:46.159Z,10.19
2019-03-12T18:40:25.516Z,10.27
2019-03-12T18:42:54.098Z,10.32
2019-03-12T18:45:33.753Z,10.31
2019-03-12T18:48:02.354Z,10.40
2019-03-12T18:50:31.011Z,10.35
2019-03-12T18:52:59.716Z,10.33
2019-03-12T18:55:37.782Z,10.36
2019-03-12T18:58:06.662Z,10.61
2019-03-12T19:00:36.173Z,10.64
2019-03-12T19:03:04.764Z,10.57
2019-03-12T19:05:33.399Z,10.53
2019-03-12T19:08:02.062Z,10.56
2019-03-12T19:10:30.589Z,10.53
2019-03-12T19:12:59.200Z,10.42
2019-03-12T19:15:27.812Z,10.33
2019-03-12T19:17:56.424Z,10.20
2019-03-12T19:20:25.239Z,10.16
2019-03-12T19:22:53.831Z,10.03
2019-03-12T19:25:33.913Z,9.99
2019-03-12T19:28:02.684Z,9.90
2019-03-12T19:30:31.382Z,9.91
2019-03-12T19:33:10.760Z,9.91
2019-03-12T19:35:39.327Z,9.71
2019-03-12T19:38:08.078Z,9.83
2019-03-12T19:40:47.562Z,9.93
2019-03-12T19:43:16.226Z,9.76
2019-03-12T19:45:44.900Z,9.60
2019-03-12T19:48:13.553Z,9.57
2019-03-12T19:50:42.173Z,9.45
2019-03-12T19:53:10.808Z,9.35
2019-03-12T19:55:42.342Z,9.20
2019-03-12T19:58:10.971Z,9.20
2019-03-12T20:00:39.928Z,9.17
2019-03-12T20:03:12.040Z,9.33
2019-03-12T20:05:39.298Z,9.33
2019-03-12T20:08:07.909Z,9.33
2019-03-12T20:10:51.305Z,9.32
2019-03-12T20:13:55.045Z,9.46
2019-03-12T20:17:09.022Z,9.49
2019-03-12T20:19:42.621Z,9.37
2019-03-12T20:22:39.962Z,9.09
2019-03-12T20:25:17.288Z,8.96
2019-03-12T20:28:06.525Z,8.99
2019-03-12T20:31:00.811Z,8.98
2019-03-12T20:33:44.281Z,9.00
2019-03-12T20:36:30.832Z,8.91
2019-03-12T20:39:30.948Z,8.89
2019-03-12T20:42:14.397Z,9.07
2019-03-12T20:45:17.797Z,9.13
2019-03-12T20:48:04.437Z,9.30
2019-03-12T20:51:12.844Z,9.57
2019-03-12T20:53:42.792Z,9.51
2019-03-12T20:56:36.548Z,9.32
2019-03-12T20:59:41.623Z,9.34
2019-03-12T21:02:39.844Z,9.44
2019-03-12T21:05:14.124Z,9.21
2019-03-12T21:08:06.415Z,9.21
2019-03-12T21:11:08.367Z,8.94
2019-03-12T21:14:06.736Z,8.33
2019-03-12T21:16:50.338Z,7.92
2019-03-12T21:19:57.521Z,7.73
2019-03-12T21:22:35.041Z,7.53
2019-03-12T21:25:37.736Z,7.54
2019-03-12T21:28:42.909Z,7.22
2019-03-12T21:31:14.827Z,6.74
2019-03-12T21:33:42.136Z,6.51
2019-03-12T21:36:10.796Z,6.30
2019-03-12T21:38:39.356Z,6.12
2019-03-12T21:41:08.049Z,6.02
2019-03-12T21:43:36.656Z,6.01
2019-03-12T21:46:05.378Z,6.08
2019-03-12T21:48:34.054Z,6.15
2019-03-12T21:51:02.661Z,6.10
2019-03-12T21:53:31.157Z,6.09
2019-03-12T21:55:59.780Z,6.14
2019-03-12T21:58:28.434Z,6.42
2019-03-12T22:00:57.051Z,6.69
2019-03-12T22:03:25.684Z,6.50
2019-03-12T22:05:54.513Z,6.19
2019-03-12T22:08:25.264Z,6.02
2019-03-12T22:10:53.305Z,5.80
2019-03-12T22:13:21.914Z,5.92
2019-03-12T22:15:50.631Z,5.94
2019-03-12T22:18:19.195Z,5.98
2019-03-12T22:20:47.683Z,5.94
2019-03-12T22:23:17.934Z,6.07
2019-03-12T22:25:46.521Z,6.18
2019-03-12T22:28:15.153Z,6.37
2019-03-12T22:30:43.702Z,6.41
2019-03-12T22:33:12.315Z,6.53
2019-03-12T22:35:40.929Z,6.81
2019-03-12T22:38:09.701Z,6.78
2019-03-12T22:40:38.279Z,6.66
2019-03-12T22:43:06.954Z,6.45
2019-03-12T22:45:35.485Z,6.45
2019-03-12T22:48:04.104Z,6.45
2019-03-12T22:50:32.761Z,6.35
2019-03-12T22:53:01.369Z,6.33
2019-03-12T22:55:29.987Z,6.41
2019-03-12T22:57:58.574Z,6.41
2019-03-12T23:00:29.081Z,6.42
2019-03-12T23:02:57.691Z,6.41
2019-03-12T23:05:26.203Z,6.52
2019-03-12T23:07:54.830Z,6.72
2019-03-12T23:10:23.480Z,6.99
2019-03-12T23:12:52.815Z,7.16
2019-03-12T23:15:21.662Z,6.91
2019-03-12T23:17:50.280Z,6.71
2019-03-12T23:20:21.014Z,6.51
2019-03-12T23:22:52.200Z,6.26
2019-03-12T23:25:19.945Z,6.31
2019-03-12T23:27:48.475Z,6.27
2019-03-12T23:30:21.673Z,6.39
2019-03-12T23:32:50.296Z,6.39
2019-03-12T23:35:19.054Z,6.40
2019-03-12T23:37:47.767Z,6.50
2019-03-12T23:40:17.662Z,6.56
2019-03-12T23:42:46.596Z,6.61
2019-03-12T23:45:16.624Z,6.75
2019-03-12T23:47:46.026Z,7.08
2019-03-12T23:50:16.581Z,6.87
2019-03-12T23:52:45.799Z,6.60
2019-03-12T23:55:16.351Z,6.60
2019-03-12T23:57:44.983Z,6.41
